createdAt,value
2018-02-11T00:00:30.153Z,13.30
2018-02-11T00:01:30.167Z,15.30
2018-02-11T00:02:30.182Z,11.40
2018-02-11T00:03:30.198Z,16.30
2018-02-11T00:04:30.214Z,10.20
2018-02-11T00:05:30.228Z,13.50
2018-02-11T00:06:30.244Z,9.50
2018-02-11T00:07:30.309Z,11.70
2018-02-11T00:08:30.274Z,10.20
2018-02-11T00:09:30.289Z,16.50
2018-02-11T00:10:30.304Z,8.30
2018-02-11T00:11:30.320Z,8.50
2018-02-11T00:12:30.335Z,9.90
2018-02-11T00:13:30.349Z,17.50
2018-02-11T00:14:30.452Z,30.20
2018-02-11T00:15:30.387Z,9.80
2018-02-11T00:16:30.396Z,11.80
2018-02-11T00:17:30.410Z,8.90
2018-02-11T00:18:30.426Z,10.30
2018-02-11T00:19:30.546Z,9.80
2018-02-11T00:20:30.457Z,7.50
2018-02-11T00:21:30.472Z,24.50
2018-02-11T00:22:30.486Z,14.10
2018-02-11T00:23:30.502Z,8.20
2018-02-11T00:24:30.517Z,8.70
2018-02-11T00:25:30.532Z,9.50
2018-02-11T00:26:30.547Z,7.00
2018-02-11T00:27:30.563Z,8.90
2018-02-11T00:28:30.577Z,10.30
2018-02-11T00:29:30.594Z,12.60
2018-02-11T00:30:30.608Z,10.40
2018-02-11T00:31:30.624Z,8.10
2018-02-11T00:32:30.639Z,8.00
2018-02-11T00:33:30.653Z,7.70
2018-02-11T00:34:30.669Z,8.10
2018-02-11T00:35:30.684Z,7.10
2018-02-11T00:36:30.699Z,7.80
2018-02-11T00:37:30.714Z,7.60
2018-02-11T00:38:30.729Z,7.20
2018-02-11T00:39:30.743Z,6.90
2018-02-11T00:40:30.762Z,6.60
2018-02-11T00:41:30.775Z,6.30
2018-02-11T00:42:30.790Z,6.90
2018-02-11T00:43:30.805Z,9.50
2018-02-11T00:44:30.820Z,8.30
2018-02-11T00:45:30.835Z,7.30
2018-02-11T00:46:30.852Z,7.50
2018-02-11T00:47:30.866Z,6.70
2018-02-11T00:48:30.881Z,6.80
2018-02-11T00:49:30.894Z,7.50
2018-02-11T00:50:30.910Z,5.90
2018-02-11T00:51:30.926Z,6.60
2018-02-11T00:52:30.941Z,5.40
2018-02-11T00:53:31.056Z,6.30
2018-02-11T00:54:30.971Z,6.00
2018-02-11T00:55:30.986Z,7.00
2018-02-11T00:56:31.007Z,6.70
2018-02-11T00:57:31.016Z,7.10
2018-02-11T00:58:31.031Z,10.10
2018-02-11T00:59:31.048Z,9.10
2018-02-11T01:00:31.067Z,6.30
2018-02-11T01:01:31.078Z,6.30
2018-02-11T01:02:31.091Z,8.20
2018-02-11T01:03:31.107Z,7.20
2018-02-11T01:04:31.122Z,6.30
2018-02-11T01:05:31.137Z,6.80
2018-02-11T01:06:31.253Z,6.20
2018-02-11T01:07:31.167Z,9.10
2018-02-11T01:08:31.183Z,7.10
2018-02-11T01:09:31.196Z,7.30
2018-02-11T01:10:31.213Z,8.50
2018-02-11T01:11:31.228Z,8.10
2018-02-11T01:12:31.245Z,8.40
2018-02-11T01:13:31.258Z,6.80
2018-02-11T01:14:31.273Z,6.10
2018-02-11T01:15:31.289Z,6.80
2018-02-11T01:16:31.304Z,6.10
2018-02-11T01:17:31.318Z,6.20
2018-02-11T01:18:31.333Z,6.90
2018-02-11T01:19:31.349Z,6.30
2018-02-11T01:20:31.366Z,6.70
2018-02-11T01:21:31.379Z,6.60
2018-02-11T01:22:31.395Z,7.00
2018-02-11T01:23:31.410Z,7.70
2018-02-11T01:24:31.425Z,11.20
2018-02-11T01:25:31.440Z,8.70
2018-02-11T01:26:31.505Z,7.80
2018-02-11T01:27:31.470Z,6.60
2018-02-11T01:28:31.485Z,7.60
2018-02-11T01:29:31.502Z,6.50
2018-02-11T01:30:31.516Z,6.70
2018-02-11T01:31:31.531Z,6.00
2018-02-11T01:32:31.546Z,6.10
2018-02-11T01:33:31.561Z,6.70
2018-02-11T01:34:31.576Z,6.80
2018-02-11T01:35:31.590Z,6.70
2018-02-11T01:36:31.606Z,6.30
2018-02-11T01:37:31.620Z,6.10
2018-02-11T01:38:31.636Z,6.10
2018-02-11T01:39:31.652Z,6.60
2018-02-11T01:40:31.667Z,5.70
2018-02-11T01:41:31.681Z,6.20
2018-02-11T01:42:31.699Z,6.30
2018-02-11T01:43:31.812Z,7.50
2018-02-11T01:44:31.727Z,7.70
2018-02-11T01:45:31.742Z,8.00
2018-02-11T01:46:31.757Z,6.80
2018-02-11T01:47:31.773Z,6.50
2018-02-11T01:48:31.789Z,6.40
2018-02-11T01:49:31.802Z,6.30
2018-02-11T01:50:31.817Z,5.90
2018-02-11T01:51:31.833Z,7.30
2018-02-11T01:52:31.847Z,8.40
2018-02-11T01:53:31.863Z,7.10
2018-02-11T01:54:31.877Z,6.50
2018-02-11T01:55:31.893Z,6.70
2018-02-11T01:56:31.908Z,6.80
2018-02-11T01:57:31.923Z,6.10
2018-02-11T01:58:31.938Z,6.40
2018-02-11T01:59:31.953Z,7.30
2018-02-11T02:00:31.969Z,6.90
2018-02-11T02:01:31.983Z,7.00
2018-02-11T02:02:32.048Z,7.30
2018-02-11T02:03:32.013Z,6.50
2018-02-11T02:04:32.029Z,7.10
2018-02-11T02:05:32.043Z,6.80
2018-02-11T02:06:32.058Z,6.70
2018-02-11T02:07:32.073Z,7.40
2018-02-11T02:08:32.088Z,6.60
2018-02-11T02:09:32.102Z,6.60
2018-02-11T02:10:32.118Z,6.60
2018-02-11T02:11:32.132Z,6.70
2018-02-11T02:12:32.148Z,7.80
2018-02-11T02:13:32.162Z,7.60
2018-02-11T02:14:32.177Z,7.50
2018-02-11T02:15:32.193Z,8.70
2018-02-11T02:16:32.208Z,7.40
2018-02-11T02:17:32.221Z,6.60
2018-02-11T02:18:32.237Z,7.90
2018-02-11T02:19:32.252Z,6.90
2018-02-11T02:20:32.268Z,6.70
2018-02-11T02:21:32.323Z,6.30
2018-02-11T02:22:32.296Z,6.40
2018-02-11T02:23:32.311Z,7.40
2018-02-11T02:24:32.326Z,6.40
2018-02-11T02:25:32.341Z,7.10
2018-02-11T02:26:32.355Z,7.30
2018-02-11T02:27:32.370Z,7.30
2018-02-11T02:28:32.385Z,7.20
2018-02-11T02:29:32.399Z,6.80
2018-02-11T02:30:32.414Z,7.00
2018-02-11T02:31:32.429Z,6.80
2018-02-11T02:32:32.444Z,7.80
2018-02-11T02:33:32.458Z,8.40
2018-02-11T02:34:32.472Z,7.20
2018-02-11T02:35:32.488Z,8.30
2018-02-11T02:36:32.502Z,8.20
2018-02-11T02:37:32.516Z,7.50
2018-02-11T02:38:32.531Z,8.00
2018-02-11T02:39:32.545Z,7.60
2018-02-11T02:40:32.610Z,7.50
2018-02-11T02:41:32.576Z,8.00
2018-02-11T02:42:32.589Z,7.90
2018-02-11T02:43:32.604Z,7.90
2018-02-11T02:44:32.619Z,8.00
2018-02-11T02:45:32.632Z,7.30
2018-02-11T02:46:32.648Z,7.70
2018-02-11T02:47:32.662Z,7.80
2018-02-11T02:48:32.676Z,7.90
2018-02-11T02:49:32.694Z,7.50
2018-02-11T02:50:32.702Z,7.80
2018-02-11T02:51:32.718Z,7.30
2018-02-11T02:52:32.783Z,6.90
2018-02-11T02:53:32.755Z,8.80
2018-02-11T02:54:32.761Z,7.30
2018-02-11T02:55:32.776Z,7.50
2018-02-11T02:56:32.792Z,8.40
2018-02-11T02:57:32.804Z,8.50
2018-02-11T02:58:32.818Z,7.40
2018-02-11T02:59:32.834Z,7.80
2018-02-11T03:00:32.849Z,6.80
2018-02-11T03:01:32.861Z,8.20
2018-02-11T03:02:32.876Z,7.10
2018-02-11T03:03:32.891Z,8.10
2018-02-11T03:04:32.905Z,7.90
2018-02-11T03:05:32.918Z,6.30
2018-02-11T03:06:32.933Z,7.40
2018-02-11T03:07:32.946Z,7.20
2018-02-11T03:08:32.962Z,6.30
2018-02-11T03:09:32.976Z,7.30
2018-02-11T03:10:32.991Z,7.60
2018-02-11T03:11:33.006Z,7.40
2018-02-11T03:12:33.020Z,6.90
2018-02-11T03:13:33.034Z,7.20
2018-02-11T03:14:33.052Z,6.70
2018-02-11T03:15:33.063Z,6.30
2018-02-11T03:16:33.077Z,6.80
2018-02-11T03:17:33.091Z,7.50
2018-02-11T03:18:33.106Z,6.80
2018-02-11T03:19:33.120Z,7.00
2018-02-11T03:20:33.135Z,6.10
2018-02-11T03:21:33.149Z,6.70
2018-02-11T03:22:33.163Z,6.50
2018-02-11T03:23:33.178Z,6.20
2018-02-11T03:24:33.192Z,7.00
2018-02-11T03:25:33.206Z,6.70
2018-02-11T03:26:33.221Z,6.40
2018-02-11T03:27:33.236Z,7.10
2018-02-11T03:28:33.250Z,6.80
2018-02-11T03:29:33.264Z,6.20
2018-02-11T03:30:33.282Z,6.50
2018-02-11T03:31:33.294Z,6.00
2018-02-11T03:32:33.311Z,7.30
2018-02-11T03:33:33.322Z,5.90
2018-02-11T03:34:33.337Z,6.50
2018-02-11T03:35:33.355Z,6.30
2018-02-11T03:36:33.366Z,6.80
2018-02-11T03:37:33.379Z,6.00
2018-02-11T03:38:33.442Z,6.10
2018-02-11T03:39:33.410Z,5.60
2018-02-11T03:40:33.425Z,6.00
2018-02-11T03:41:33.439Z,5.70
2018-02-11T03:42:33.453Z,5.80
2018-02-11T03:43:33.569Z,5.50
2018-02-11T03:44:33.483Z,6.70
2018-02-11T03:45:33.497Z,6.80
2018-02-11T03:46:33.513Z,6.70
2018-02-11T03:47:33.526Z,5.70
2018-02-11T03:48:33.542Z,5.80
2018-02-11T03:49:33.555Z,5.60
2018-02-11T03:50:33.571Z,5.90
2018-02-11T03:51:33.585Z,6.50
2018-02-11T03:52:33.600Z,5.90
2018-02-11T03:53:33.614Z,12.50
2018-02-11T03:54:33.628Z,6.90
2018-02-11T03:55:33.644Z,5.70
2018-02-11T03:56:33.658Z,6.10
2018-02-11T03:57:33.673Z,6.00
2018-02-11T03:58:33.686Z,5.90
2018-02-11T03:59:33.702Z,5.30
2018-02-11T04:00:33.717Z,5.10
2018-02-11T04:01:33.730Z,5.00
2018-02-11T04:02:33.745Z,5.40
2018-02-11T04:03:33.760Z,5.60
2018-02-11T04:04:33.775Z,5.30
2018-02-11T04:05:33.840Z,5.50
2018-02-11T04:06:33.804Z,4.30
2018-02-11T04:07:33.819Z,5.00
2018-02-11T04:08:33.834Z,5.90
2018-02-11T04:09:33.848Z,5.30
2018-02-11T04:10:33.863Z,5.30
2018-02-11T04:11:33.878Z,5.40
2018-02-11T04:12:33.893Z,5.80
2018-02-11T04:13:33.907Z,5.60
2018-02-11T04:14:33.923Z,5.50
2018-02-11T04:15:33.937Z,5.00
2018-02-11T04:16:33.952Z,4.60
2018-02-11T04:17:33.966Z,4.90
2018-02-11T04:18:33.981Z,5.50
2018-02-11T04:19:33.996Z,5.20
2018-02-11T04:20:34.011Z,5.60
2018-02-11T04:21:34.025Z,4.90
2018-02-11T04:22:34.041Z,4.90
2018-02-11T04:23:34.056Z,4.40
2018-02-11T04:24:34.071Z,5.10
2018-02-11T04:25:34.084Z,5.20
2018-02-11T04:26:34.099Z,5.00
2018-02-11T04:27:34.115Z,5.00
2018-02-11T04:28:34.130Z,5.10
2018-02-11T04:29:34.144Z,4.60
2018-02-11T04:30:34.160Z,4.80
2018-02-11T04:31:34.174Z,4.70
2018-02-11T04:32:34.190Z,4.80
2018-02-11T04:33:34.204Z,5.10
2018-02-11T04:34:34.218Z,4.80
2018-02-11T04:35:34.234Z,4.80
2018-02-11T04:36:34.249Z,5.00
2018-02-11T04:37:34.261Z,4.80
2018-02-11T04:38:34.278Z,4.30
2018-02-11T04:39:34.292Z,5.10
2018-02-11T04:40:34.309Z,4.70
2018-02-11T04:41:34.325Z,4.70
2018-02-11T04:42:34.338Z,4.60
2018-02-11T04:43:34.353Z,5.10
2018-02-11T04:44:34.369Z,4.50
2018-02-11T04:45:34.382Z,5.20
2018-02-11T04:46:34.398Z,4.80
2018-02-11T04:47:34.413Z,4.80
2018-02-11T04:48:34.428Z,4.50
2018-02-11T04:49:34.442Z,5.00
2018-02-11T04:50:34.457Z,4.90
2018-02-11T04:51:34.472Z,4.40
2018-02-11T04:52:34.488Z,4.80
2018-02-11T04:53:34.502Z,4.80
2018-02-11T04:54:34.517Z,5.00
2018-02-11T04:55:34.532Z,5.00
2018-02-11T04:56:34.547Z,4.70
2018-02-11T04:57:34.561Z,4.80
2018-02-11T04:58:34.577Z,4.80
2018-02-11T04:59:34.592Z,5.10
2018-02-11T05:00:34.607Z,4.30
2018-02-11T05:01:34.621Z,4.40
2018-02-11T05:02:34.686Z,4.80
2018-02-11T05:03:34.651Z,4.80
2018-02-11T05:04:34.667Z,4.70
2018-02-11T05:05:34.681Z,4.20
2018-02-11T05:06:34.695Z,5.00
2018-02-11T05:07:34.711Z,4.50
2018-02-11T05:08:34.726Z,4.30
2018-02-11T05:09:34.740Z,4.80
2018-02-11T05:10:34.755Z,4.50
2018-02-11T05:11:34.770Z,4.20
2018-02-11T05:12:34.786Z,4.10
2018-02-11T05:13:34.800Z,4.20
2018-02-11T05:14:34.814Z,4.10
2018-02-11T05:15:34.831Z,4.70
2018-02-11T05:16:34.846Z,4.70
2018-02-11T05:17:34.860Z,4.00
2018-02-11T05:18:34.875Z,4.50
2018-02-11T05:19:34.890Z,4.60
2018-02-11T05:20:34.910Z,3.80
2018-02-11T05:21:34.919Z,4.20
2018-02-11T05:22:34.935Z,4.30
2018-02-11T05:23:34.950Z,4.80
2018-02-11T05:24:34.966Z,5.20
2018-02-11T05:25:34.980Z,5.10
2018-02-11T05:26:34.995Z,4.50
2018-02-11T05:27:35.010Z,5.10
2018-02-11T05:28:35.025Z,4.70
2018-02-11T05:29:35.040Z,4.80
2018-02-11T05:30:35.056Z,4.50
2018-02-11T05:31:35.070Z,4.50
2018-02-11T05:32:35.086Z,4.40
2018-02-11T05:33:35.100Z,4.10
2018-02-11T05:34:35.115Z,3.90
2018-02-11T05:35:35.129Z,3.90
2018-02-11T05:36:35.146Z,4.00
2018-02-11T05:37:35.161Z,3.50
2018-02-11T05:38:35.175Z,3.90
2018-02-11T05:39:35.189Z,3.90
2018-02-11T05:40:35.205Z,4.40
2018-02-11T05:41:35.219Z,4.20
2018-02-11T05:42:35.234Z,3.60
2018-02-11T05:43:35.250Z,4.10
2018-02-11T05:44:35.266Z,4.50
2018-02-11T05:45:35.278Z,4.10
2018-02-11T05:46:35.293Z,4.20
2018-02-11T05:47:35.309Z,4.20
2018-02-11T05:48:35.324Z,3.50
2018-02-11T05:49:35.341Z,3.90
2018-02-11T05:50:35.353Z,4.40
2018-02-11T05:51:35.369Z,4.00
2018-02-11T05:52:35.384Z,4.20
2018-02-11T05:53:35.397Z,4.20
2018-02-11T05:54:35.417Z,4.60
2018-02-11T05:55:35.427Z,4.20
2018-02-11T05:56:35.442Z,4.90
2018-02-11T05:57:35.464Z,4.90
2018-02-11T05:58:35.521Z,4.60
2018-02-11T05:59:35.486Z,4.50
2018-02-11T06:00:35.501Z,4.90
2018-02-11T06:01:35.515Z,5.50
2018-02-11T06:02:35.530Z,4.40
2018-02-11T06:03:35.545Z,4.60
2018-02-11T06:04:35.560Z,4.30
2018-02-11T06:05:35.625Z,4.80
2018-02-11T06:06:35.589Z,4.00
2018-02-11T06:07:35.604Z,4.60
2018-02-11T06:08:35.622Z,4.20
2018-02-11T06:09:35.636Z,4.00
2018-02-11T06:10:35.648Z,4.00
2018-02-11T06:11:35.663Z,3.90
2018-02-11T06:12:35.678Z,4.30
2018-02-11T06:13:35.692Z,4.70
2018-02-11T06:14:35.707Z,5.60
2018-02-11T06:15:35.722Z,4.90
2018-02-11T06:16:35.737Z,4.40
2018-02-11T06:17:35.801Z,4.00
2018-02-11T06:18:35.767Z,4.00
2018-02-11T06:19:35.780Z,3.40
2018-02-11T06:20:35.796Z,3.80
2018-02-11T06:21:35.810Z,4.10
2018-02-11T06:22:35.825Z,4.20
2018-02-11T06:23:35.865Z,4.10
2018-02-11T06:24:35.855Z,4.60
2018-02-11T06:25:35.869Z,3.60
2018-02-11T06:26:35.884Z,4.10
2018-02-11T06:27:35.899Z,3.90
2018-02-11T06:28:35.914Z,4.70
2018-02-11T06:29:35.974Z,4.10
2018-02-11T06:30:35.943Z,4.50
2018-02-11T06:31:35.958Z,4.20
2018-02-11T06:32:35.973Z,4.80
2018-02-11T06:33:35.987Z,4.50
2018-02-11T06:34:36.002Z,4.20
2018-02-11T06:35:36.017Z,3.60
2018-02-11T06:36:36.033Z,4.60
2018-02-11T06:37:36.047Z,4.10
2018-02-11T06:38:36.061Z,4.10
2018-02-11T06:39:36.076Z,3.90
2018-02-11T06:40:36.141Z,3.70
2018-02-11T06:41:36.106Z,3.90
2018-02-11T06:42:36.121Z,3.60
2018-02-11T06:43:36.136Z,3.70
2018-02-11T06:44:36.151Z,3.70
2018-02-11T06:45:36.165Z,3.50
2018-02-11T06:46:36.179Z,3.30
2018-02-11T06:47:36.245Z,3.30
2018-02-11T06:48:36.209Z,3.30
2018-02-11T06:49:36.225Z,3.30
2018-02-11T06:50:36.239Z,3.60
2018-02-11T06:51:36.254Z,3.70
2018-02-11T06:52:36.269Z,3.40
2018-02-11T06:53:36.283Z,3.20
2018-02-11T06:54:36.298Z,3.10
2018-02-11T06:55:36.316Z,3.30
2018-02-11T06:56:36.329Z,3.20
2018-02-11T06:57:36.344Z,3.10
2018-02-11T06:58:36.357Z,3.00
2018-02-11T06:59:36.372Z,3.00
2018-02-11T07:00:36.387Z,3.20
2018-02-11T07:01:36.402Z,3.20
2018-02-11T07:02:36.416Z,3.00
2018-02-11T07:03:36.432Z,2.90
2018-02-11T07:04:36.446Z,2.90
2018-02-11T07:05:36.460Z,2.90
2018-02-11T07:06:36.478Z,3.30
2018-02-11T07:07:36.490Z,3.00
2018-02-11T07:08:36.506Z,2.80
2018-02-11T07:09:36.520Z,2.80
2018-02-11T07:10:36.534Z,2.80
2018-02-11T07:11:36.597Z,3.00
2018-02-11T07:12:36.564Z,3.10
2018-02-11T07:13:36.578Z,3.00
2018-02-11T07:14:36.594Z,2.80
2018-02-11T07:15:36.659Z,3.00
2018-02-11T07:16:36.624Z,2.90
2018-02-11T07:17:36.638Z,2.80
2018-02-11T07:18:36.652Z,3.00
2018-02-11T07:19:36.668Z,2.70
2018-02-11T07:20:36.683Z,2.90
2018-02-11T07:21:36.699Z,3.00
2018-02-11T07:22:36.713Z,3.00
2018-02-11T07:23:36.728Z,3.00
2018-02-11T07:24:36.742Z,3.30
2018-02-11T07:25:36.762Z,3.10
2018-02-11T07:26:36.772Z,2.80
2018-02-11T07:27:36.787Z,2.90
2018-02-11T07:28:36.801Z,3.30
2018-02-11T07:29:36.816Z,3.30
2018-02-11T07:30:36.831Z,3.20
2018-02-11T07:31:36.846Z,3.60
2018-02-11T07:32:36.861Z,3.30
2018-02-11T07:33:36.876Z,2.80
2018-02-11T07:34:36.890Z,3.50
2018-02-11T07:35:36.905Z,3.00
2018-02-11T07:36:36.920Z,3.10
2018-02-11T07:37:36.935Z,3.40
2018-02-11T07:38:36.949Z,4.20
2018-02-11T07:39:36.965Z,3.30
2018-02-11T07:40:36.980Z,3.60
2018-02-11T07:41:36.994Z,3.20
2018-02-11T07:42:37.009Z,4.00
2018-02-11T07:43:37.024Z,3.90
2018-02-11T07:44:37.039Z,4.40
2018-02-11T07:45:37.105Z,3.60
2018-02-11T07:46:37.072Z,4.20
2018-02-11T07:47:37.084Z,4.10
2018-02-11T07:48:37.099Z,4.20
2018-02-11T07:49:37.112Z,3.80
2018-02-11T07:50:37.128Z,4.20
2018-02-11T07:51:37.142Z,3.90
2018-02-11T07:52:37.161Z,4.70
2018-02-11T07:53:37.222Z,4.40
2018-02-11T07:54:37.187Z,4.50
2018-02-11T07:55:37.202Z,4.20
2018-02-11T07:56:37.217Z,4.80
2018-02-11T07:57:37.231Z,4.70
2018-02-11T07:58:37.250Z,4.50
2018-02-11T07:59:37.261Z,4.30
2018-02-11T08:00:37.276Z,4.60
2018-02-11T08:01:37.290Z,4.20
2018-02-11T08:02:37.306Z,4.10
2018-02-11T08:03:37.320Z,4.60
2018-02-11T08:04:37.336Z,4.40
2018-02-11T08:05:37.349Z,4.30
2018-02-11T08:06:37.365Z,4.70
2018-02-11T08:07:37.380Z,3.70
2018-02-11T08:08:37.393Z,4.10
2018-02-11T08:09:37.409Z,4.20
2018-02-11T08:10:37.423Z,3.90
2018-02-11T08:11:37.440Z,4.10
2018-02-11T08:12:37.454Z,4.50
2018-02-11T08:13:37.468Z,4.30
2018-02-11T08:14:37.483Z,4.00
2018-02-11T08:15:37.499Z,4.30
2018-02-11T08:16:37.513Z,3.90
2018-02-11T08:17:37.528Z,4.40
2018-02-11T08:18:37.544Z,4.20
2018-02-11T08:19:37.559Z,4.60
2018-02-11T08:20:37.573Z,4.20
2018-02-11T08:21:37.587Z,4.00
2018-02-11T08:22:37.643Z,4.40
2018-02-11T08:23:37.618Z,4.20
2018-02-11T08:24:37.633Z,4.00
2018-02-11T08:25:37.699Z,4.30
2018-02-11T08:26:37.662Z,4.20
2018-02-11T08:27:37.678Z,4.40
2018-02-11T08:28:37.693Z,4.70
2018-02-11T08:29:37.707Z,4.50
2018-02-11T08:30:37.722Z,4.10
2018-02-11T08:31:37.737Z,4.50
2018-02-11T08:32:37.752Z,4.80
2018-02-11T08:33:37.766Z,5.00
2018-02-11T08:34:37.782Z,4.30
2018-02-11T08:35:37.847Z,4.70
2018-02-11T08:36:37.812Z,5.00
2018-02-11T08:37:37.826Z,5.00
2018-02-11T08:38:37.841Z,5.20
2018-02-11T08:39:37.856Z,5.30
2018-02-11T08:40:37.872Z,5.00
2018-02-11T08:41:37.886Z,5.60
2018-02-11T08:42:37.904Z,5.90
2018-02-11T08:43:37.967Z,6.00
2018-02-11T08:44:37.932Z,6.10
2018-02-11T08:45:37.948Z,6.20
2018-02-11T08:46:37.963Z,5.90
2018-02-11T08:47:37.977Z,6.40
2018-02-11T08:48:37.994Z,6.50
2018-02-11T08:49:38.007Z,6.20
2018-02-11T08:50:38.022Z,6.60
2018-02-11T08:51:38.037Z,6.60
2018-02-11T08:52:38.055Z,6.30
2018-02-11T08:53:38.067Z,6.70
2018-02-11T08:54:38.115Z,6.40
2018-02-11T08:55:38.098Z,6.50
2018-02-11T08:56:38.112Z,5.80
2018-02-11T08:57:38.127Z,5.70
2018-02-11T08:58:38.142Z,6.20
2018-02-11T08:59:38.158Z,6.80
2018-02-11T09:00:38.174Z,6.60
2018-02-11T09:01:38.188Z,6.50
2018-02-11T09:02:38.203Z,6.30
2018-02-11T09:03:38.219Z,6.80
2018-02-11T09:04:38.234Z,6.50
2018-02-11T09:05:38.248Z,6.30
2018-02-11T09:06:38.264Z,6.40
2018-02-11T09:07:38.280Z,7.10
2018-02-11T09:08:38.295Z,6.50
2018-02-11T09:09:38.309Z,6.40
2018-02-11T09:10:38.324Z,6.40
2018-02-11T09:11:38.341Z,6.40
2018-02-11T09:12:38.356Z,6.30
2018-02-11T09:13:38.372Z,7.00
2018-02-11T09:14:38.385Z,6.50
2018-02-11T09:15:38.401Z,7.10
2018-02-11T09:16:38.416Z,6.70
2018-02-11T09:17:38.431Z,8.10
2018-02-11T09:18:38.446Z,7.00
2018-02-11T09:19:38.467Z,7.70
2018-02-11T09:20:38.477Z,7.10
2018-02-11T09:21:38.492Z,6.70
2018-02-11T09:22:38.506Z,7.50
2018-02-11T09:23:38.524Z,8.00
2018-02-11T09:24:38.539Z,7.40
2018-02-11T09:25:38.554Z,7.80
2018-02-11T09:26:38.569Z,7.90
2018-02-11T09:27:38.584Z,8.30
2018-02-11T09:28:38.602Z,8.00
2018-02-11T09:29:38.615Z,8.10
2018-02-11T09:30:38.630Z,7.90
2018-02-11T09:31:38.646Z,8.20
2018-02-11T09:32:38.662Z,8.10
2018-02-11T09:33:38.676Z,8.90
2018-02-11T09:34:38.692Z,8.70
2018-02-11T09:35:38.707Z,8.90
2018-02-11T09:36:38.723Z,8.60
2018-02-11T09:37:38.738Z,9.50
2018-02-11T09:38:38.754Z,8.50
2018-02-11T09:39:38.771Z,8.90
2018-02-11T09:40:38.785Z,8.80
2018-02-11T09:41:38.799Z,8.80
2018-02-11T09:42:38.815Z,10.20
2018-02-11T09:43:38.832Z,9.20
2018-02-11T09:44:38.851Z,9.70
2018-02-11T09:45:38.861Z,9.40
2018-02-11T09:46:38.877Z,9.90
2018-02-11T09:47:38.893Z,10.50
2018-02-11T09:48:38.909Z,10.10
2018-02-11T09:49:38.924Z,9.90
2018-02-11T09:50:38.939Z,10.40
2018-02-11T09:51:38.955Z,10.70
2018-02-11T09:52:38.971Z,11.00
2018-02-11T09:53:38.986Z,11.60
2018-02-11T09:54:39.002Z,11.50
2018-02-11T09:55:39.017Z,10.90
2018-02-11T09:56:39.034Z,10.20
2018-02-11T09:57:39.048Z,11.90
2018-02-11T09:58:39.064Z,10.80
2018-02-11T09:59:39.082Z,11.70
2018-02-11T10:00:39.096Z,11.30
2018-02-11T10:01:39.110Z,12.50
2018-02-11T10:02:39.127Z,11.90
2018-02-11T10:03:39.142Z,12.00
2018-02-11T10:04:39.197Z,10.50
2018-02-11T10:05:39.173Z,10.90
2018-02-11T10:06:39.189Z,10.50
2018-02-11T10:07:39.208Z,12.30
2018-02-11T10:08:39.220Z,11.60
2018-02-11T10:09:39.236Z,12.10
2018-02-11T10:10:39.252Z,11.60
2018-02-11T10:11:39.269Z,16.10
2018-02-11T10:12:39.284Z,12.30
2018-02-11T10:13:39.299Z,12.20
2018-02-11T10:14:39.315Z,12.80
2018-02-11T10:15:39.331Z,11.70
2018-02-11T10:16:39.347Z,12.30
2018-02-11T10:17:39.362Z,12.80
2018-02-11T10:18:39.379Z,12.20
2018-02-11T10:19:39.395Z,12.60
2018-02-11T10:20:39.411Z,12.30
2018-02-11T10:21:39.428Z,12.40
2018-02-11T10:22:39.442Z,12.70
2018-02-11T10:23:39.505Z,12.70
2018-02-11T10:24:39.474Z,12.50
2018-02-11T10:25:39.490Z,13.00
2018-02-11T10:26:39.505Z,13.40
2018-02-11T10:27:39.522Z,13.70
2018-02-11T10:28:39.537Z,12.90
2018-02-11T10:29:39.557Z,12.90
2018-02-11T10:30:39.570Z,12.90
2018-02-11T10:31:39.586Z,12.80
2018-02-11T10:32:39.603Z,12.80
2018-02-11T10:33:39.617Z,12.50
2018-02-11T10:34:39.634Z,12.30
2018-02-11T10:35:39.651Z,12.40
2018-02-11T10:36:39.667Z,12.10
2018-02-11T10:37:39.682Z,12.20
2018-02-11T10:38:39.699Z,12.70
2018-02-11T10:39:39.715Z,12.80
2018-02-11T10:40:39.731Z,12.20
2018-02-11T10:41:39.747Z,12.60
2018-02-11T10:42:39.763Z,12.90
2018-02-11T10:43:39.780Z,12.00
2018-02-11T10:44:39.796Z,12.90
2018-02-11T10:45:39.812Z,11.60
2018-02-11T10:46:39.828Z,12.00
2018-02-11T10:47:39.845Z,11.70
2018-02-11T10:48:39.862Z,11.70
2018-02-11T10:49:39.979Z,11.30
2018-02-11T10:50:39.894Z,12.30
2018-02-11T10:51:39.910Z,12.10
2018-02-11T10:52:39.927Z,11.10
2018-02-11T10:53:39.943Z,11.40
2018-02-11T10:54:39.959Z,11.40
2018-02-11T10:55:39.976Z,11.30
2018-02-11T10:56:39.993Z,10.50
2018-02-11T10:57:40.009Z,10.60
2018-02-11T10:58:40.025Z,9.80
2018-02-11T10:59:40.042Z,10.40
2018-02-11T11:00:40.058Z,11.40
2018-02-11T11:01:40.074Z,9.30
2018-02-11T11:02:40.091Z,9.20
2018-02-11T11:03:40.109Z,8.70
2018-02-11T11:04:40.126Z,8.20
2018-02-11T11:05:40.141Z,7.40
2018-02-11T11:06:40.158Z,7.90
2018-02-11T11:07:40.176Z,8.10
2018-02-11T11:08:40.192Z,7.00
2018-02-11T11:09:40.208Z,6.10
2018-02-11T11:10:40.225Z,6.10
2018-02-11T11:11:40.242Z,5.50
2018-02-11T11:12:40.259Z,5.70
2018-02-11T11:13:40.280Z,6.30
2018-02-11T11:14:40.294Z,5.60
2018-02-11T11:15:40.310Z,5.50
2018-02-11T11:16:40.327Z,5.80
2018-02-11T11:17:40.343Z,5.10
2018-02-11T11:18:40.364Z,5.40
2018-02-11T11:19:40.377Z,5.30
2018-02-11T11:20:40.395Z,5.50
2018-02-11T11:21:40.411Z,4.90
2018-02-11T11:22:40.429Z,5.90
2018-02-11T11:23:40.446Z,4.70
2018-02-11T11:24:40.464Z,4.50
2018-02-11T11:25:40.484Z,4.10
2018-02-11T11:26:40.498Z,4.80
2018-02-11T11:27:40.516Z,5.20
2018-02-11T11:28:40.534Z,5.00
2018-02-11T11:29:40.551Z,4.90
2018-02-11T11:30:40.569Z,4.50
2018-02-11T11:31:40.587Z,5.00
2018-02-11T11:32:40.608Z,4.20
2018-02-11T11:33:40.621Z,5.10
2018-02-11T11:34:40.640Z,4.50
2018-02-11T11:35:40.658Z,4.10
2018-02-11T11:36:40.676Z,4.40
2018-02-11T11:37:40.693Z,4.70
2018-02-11T11:38:40.754Z,4.50
2018-02-11T11:39:40.729Z,4.20
2018-02-11T11:40:40.746Z,4.30
2018-02-11T11:41:40.763Z,4.10
2018-02-11T11:42:40.781Z,3.90
2018-02-11T11:43:40.800Z,3.90
2018-02-11T11:44:40.817Z,4.10
2018-02-11T11:45:40.834Z,3.50
2018-02-11T11:46:40.852Z,3.80
2018-02-11T11:47:40.873Z,3.70
2018-02-11T11:48:40.888Z,3.40
2018-02-11T11:49:40.906Z,3.80
2018-02-11T11:50:40.923Z,3.70
2018-02-11T11:51:40.942Z,3.30
2018-02-11T11:52:40.959Z,4.20
2018-02-11T11:53:40.976Z,3.20
2018-02-11T11:54:40.994Z,4.40
2018-02-11T11:55:41.012Z,3.40
2018-02-11T11:56:41.030Z,3.70
2018-02-11T11:57:41.047Z,3.90
2018-02-11T11:58:41.064Z,3.60
2018-02-11T11:59:41.083Z,4.10
2018-02-11T12:00:41.100Z,2.80
2018-02-11T12:01:41.118Z,3.50
2018-02-11T12:02:41.135Z,3.00
2018-02-11T12:03:41.154Z,3.90
2018-02-11T12:04:41.171Z,3.30
2018-02-11T12:05:41.188Z,3.70
2018-02-11T12:06:41.210Z,3.50
2018-02-11T12:07:41.224Z,2.90
2018-02-11T12:08:41.242Z,3.00
2018-02-11T12:09:41.259Z,3.00
2018-02-11T12:10:41.278Z,2.90
2018-02-11T12:11:41.295Z,2.70
2018-02-11T12:12:41.313Z,3.00
2018-02-11T12:13:41.332Z,3.10
2018-02-11T12:14:41.348Z,3.30
2018-02-11T12:15:41.366Z,2.90
2018-02-11T12:16:41.384Z,3.30
2018-02-11T12:17:41.401Z,3.60
2018-02-11T12:18:41.418Z,3.00
2018-02-11T12:19:41.436Z,3.00
2018-02-11T12:20:41.454Z,3.10
2018-02-11T12:21:41.471Z,3.00
2018-02-11T12:22:41.489Z,3.00
2018-02-11T12:23:41.507Z,3.30
2018-02-11T12:24:41.525Z,2.80
2018-02-11T12:25:41.543Z,2.80
2018-02-11T12:26:41.559Z,3.20
2018-02-11T12:27:41.577Z,3.20
2018-02-11T12:28:41.594Z,3.00
2018-02-11T12:29:41.611Z,3.40
2018-02-11T12:30:41.636Z,3.40
2018-02-11T12:31:41.647Z,3.20
2018-02-11T12:32:41.663Z,3.10
2018-02-11T12:33:41.680Z,3.30
2018-02-11T12:34:41.697Z,2.90
2018-02-11T12:35:41.715Z,3.10
2018-02-11T12:36:41.732Z,3.20
2018-02-11T12:37:41.748Z,2.80
2018-02-11T12:38:41.766Z,3.00
2018-02-11T12:39:41.783Z,4.20
2018-02-11T12:40:41.801Z,3.40
2018-02-11T12:41:41.819Z,2.70
2018-02-11T12:42:41.835Z,3.10
2018-02-11T12:43:41.852Z,3.10
2018-02-11T12:44:41.870Z,3.10
2018-02-11T12:45:41.886Z,2.90
2018-02-11T12:46:41.903Z,2.70
2018-02-11T12:47:41.920Z,3.00
2018-02-11T12:48:41.937Z,3.40
2018-02-11T12:49:41.954Z,3.50
2018-02-11T12:50:41.971Z,2.60
2018-02-11T12:51:41.989Z,3.10
2018-02-11T12:52:42.006Z,2.60
2018-02-11T12:53:42.022Z,2.60
2018-02-11T12:54:42.044Z,3.00
2018-02-11T12:55:42.056Z,3.30
2018-02-11T12:56:42.075Z,3.10
2018-02-11T12:57:42.090Z,2.60
2018-02-11T12:58:42.108Z,2.10
2018-02-11T12:59:42.126Z,3.00
2018-02-11T13:00:42.142Z,2.60
2018-02-11T13:01:42.158Z,2.30
2018-02-11T13:02:42.176Z,2.90
2018-02-11T13:03:42.193Z,2.50
2018-02-11T13:04:42.211Z,3.00
2018-02-11T13:05:42.227Z,2.70
2018-02-11T13:06:42.247Z,3.40
2018-02-11T13:07:42.262Z,3.40
2018-02-11T13:08:42.280Z,3.50
2018-02-11T13:09:42.393Z,3.30
2018-02-11T13:10:42.314Z,2.90
2018-02-11T13:11:42.330Z,2.70
2018-02-11T13:12:42.349Z,2.80
2018-02-11T13:13:42.370Z,2.80
2018-02-11T13:14:42.482Z,2.50
2018-02-11T13:15:42.400Z,2.70